logo
Rechercher aéroport 
image banner adimage banner adimage banner ad
image banner ad

VT64 - Mountain View Farm

Situé à Morristown, United States

ICAO - VT64, IATA -

Données fournies par Airmate  

Information générale

Coordonnées: N44°30'55" W72°38'28"
Élévation : 1200 feet MSL.
Variation magnétique : -16° East
Voir autres Aéroports à Vermont

Données opérationnelles

Special qualification required
Heure actuelle UTC:
Heure actuelle locale:
Météo à : KMVL - Morrisville-Stowe State ( 3 km )
METAR: KMVL 180054Z AUTO 17007KT 10SM SCT110 19/08 A2998 RMK AO2 SLP151 T01940083
Voir NOTAMs / SUP AIP / TFR affectant cet aéroport [VIEW]
Fréquences de communication: [VIEW]

Pistes:

Identifiant RWYQFULongueur (ft)Largeur (ft)SurfaceLDA (ft)
02150060GRASS
20150060GRASS

Coordonnées de l'aéroport

Adresse: Morristown United States

Vue satellite de VT64